createdAt,value
2022-09-17T00:01:09.597Z,18.98
2022-09-17T00:02:47.854Z,19.03
2022-09-17T00:04:21.023Z,19.05
2022-09-17T00:06:00.570Z,19.10
2022-09-17T00:07:33.680Z,19.10
2022-09-17T00:09:09.198Z,19.09
2022-09-17T00:10:45.842Z,19.09
2022-09-17T00:12:18.983Z,19.06
2022-09-17T00:13:53.189Z,19.01
2022-09-17T00:15:26.713Z,19.01
2022-09-17T00:17:02.065Z,19.06
2022-09-17T00:18:37.063Z,19.11
2022-09-17T00:20:11.413Z,19.12
2022-09-17T00:21:45.033Z,19.08
2022-09-17T00:23:18.377Z,19.03
2022-09-17T00:24:52.885Z,19.01
2022-09-17T00:26:26.456Z,19.01
2022-09-17T00:27:59.794Z,18.98
2022-09-17T00:29:33.523Z,18.85
2022-09-17T00:31:09.741Z,18.81
2022-09-17T00:32:42.966Z,18.81
2022-09-17T00:34:16.394Z,18.75
2022-09-17T00:35:58.548Z,18.70
2022-09-17T00:37:31.724Z,18.60
2022-09-17T00:39:06.481Z,18.54
2022-09-17T00:40:41.272Z,18.57
2022-09-17T00:42:15.132Z,18.62
2022-09-17T00:43:51.158Z,18.60
2022-09-17T00:45:25.596Z,18.66
2022-09-17T00:46:58.870Z,18.66
2022-09-17T00:48:32.768Z,18.63
2022-09-17T00:50:09.183Z,18.67
2022-09-17T00:51:57.060Z,18.64
2022-09-17T00:53:33.120Z,18.63
2022-09-17T00:55:14.934Z,18.65
2022-09-17T00:56:50.250Z,18.65
2022-09-17T00:58:24.615Z,18.69
2022-09-17T00:59:57.903Z,18.71
2022-09-17T01:01:31.334Z,18.71
2022-09-17T01:03:04.782Z,18.71
2022-09-17T01:04:38.122Z,18.74
2022-09-17T01:06:19.883Z,18.74
2022-09-17T01:08:01.109Z,18.77
2022-09-17T01:09:43.894Z,18.75
2022-09-17T01:11:36.724Z,18.75
2022-09-17T01:13:24.253Z,18.79
2022-09-17T01:15:06.740Z,18.82
2022-09-17T01:16:49.512Z,18.83
2022-09-17T01:18:44.508Z,18.80
2022-09-17T01:20:41.099Z,18.86
2022-09-17T01:22:19.004Z,18.88
2022-09-17T01:24:19.746Z,18.88
2022-09-17T01:26:10.471Z,18.90
2022-09-17T01:28:25.656Z,18.84
2022-09-17T01:30:22.805Z,18.75
2022-09-17T01:32:02.877Z,18.77
2022-09-17T01:33:43.529Z,18.79
2022-09-17T01:35:22.429Z,18.82
2022-09-17T01:37:07.198Z,18.85
2022-09-17T01:38:46.019Z,18.84
2022-09-17T01:40:25.094Z,18.85
2022-09-17T01:42:08.866Z,18.85
2022-09-17T01:43:47.681Z,18.87
2022-09-17T01:45:27.892Z,18.88
2022-09-17T01:47:07.085Z,18.89
2022-09-17T01:48:44.500Z,18.89
2022-09-17T01:50:24.506Z,18.83
2022-09-17T01:51:57.898Z,18.86
2022-09-17T01:53:36.784Z,18.83
2022-09-17T01:55:14.205Z,18.80
2022-09-17T01:56:52.786Z,18.80
2022-09-17T01:58:30.206Z,18.79
2022-09-17T02:00:05.427Z,18.75
2022-09-17T02:01:49.216Z,18.70
2022-09-17T02:03:30.471Z,18.72
2022-09-17T02:05:09.916Z,18.73
2022-09-17T02:06:48.912Z,18.75
2022-09-17T02:08:26.306Z,18.77
2022-09-17T02:10:02.790Z,18.75
2022-09-17T02:11:39.017Z,18.78
2022-09-17T02:13:18.325Z,18.80
2022-09-17T02:14:55.067Z,18.84
2022-09-17T02:16:29.943Z,18.82
2022-09-17T02:18:08.246Z,18.86
2022-09-17T02:19:42.049Z,18.86
2022-09-17T02:21:23.298Z,18.86
2022-09-17T02:23:00.800Z,18.85
2022-09-17T02:24:39.181Z,18.82
2022-09-17T02:26:17.179Z,18.80
2022-09-17T02:28:03.605Z,18.81
2022-09-17T02:29:38.618Z,18.77
2022-09-17T02:31:12.014Z,18.84
2022-09-17T02:32:46.500Z,18.86
2022-09-17T02:34:21.307Z,18.84
2022-09-17T02:35:55.928Z,18.82
2022-09-17T02:37:29.525Z,18.79
2022-09-17T02:39:04.587Z,18.75
2022-09-17T02:40:47.380Z,18.78
2022-09-17T02:42:27.965Z,18.72
2022-09-17T02:44:09.444Z,18.71
2022-09-17T02:45:52.790Z,18.69
2022-09-17T02:47:53.491Z,18.56
2022-09-17T02:49:38.669Z,18.44
2022-09-17T02:51:25.012Z,18.42
2022-09-17T02:53:12.826Z,18.39
2022-09-17T02:54:58.980Z,18.33
2022-09-17T02:56:46.375Z,18.27
2022-09-17T02:58:26.072Z,18.25
2022-09-17T03:00:05.527Z,18.15
2022-09-17T03:01:45.158Z,18.12
2022-09-17T03:03:24.351Z,18.08
2022-09-17T03:04:57.218Z,18.05
2022-09-17T03:06:32.361Z,18.08
2022-09-17T03:08:08.967Z,18.03
2022-09-17T03:09:43.602Z,18.01
2022-09-17T03:11:16.835Z,18.00
2022-09-17T03:12:50.136Z,17.98
2022-09-17T03:14:23.316Z,17.95
2022-09-17T03:15:56.606Z,17.93
2022-09-17T03:17:30.858Z,17.97
2022-09-17T03:19:03.182Z,17.98
2022-09-17T03:20:36.362Z,18.02
2022-09-17T03:22:11.279Z,18.02
2022-09-17T03:23:44.430Z,17.99
2022-09-17T03:25:16.666Z,18.00
2022-09-17T03:26:50.520Z,17.97
2022-09-17T03:28:25.843Z,17.96
2022-09-17T03:29:59.595Z,17.96
2022-09-17T03:31:32.847Z,17.94
2022-09-17T03:33:06.020Z,17.92
2022-09-17T03:34:39.396Z,17.95
2022-09-17T03:36:12.686Z,17.95
2022-09-17T03:37:47.803Z,17.96
2022-09-17T03:39:19.978Z,17.96
2022-09-17T03:41:00.164Z,17.95
2022-09-17T03:42:33.566Z,17.91
2022-09-17T03:44:06.897Z,17.89
2022-09-17T03:45:39.002Z,17.82
2022-09-17T03:47:12.681Z,17.78
2022-09-17T03:48:45.847Z,17.81
2022-09-17T03:50:18.186Z,17.83
2022-09-17T03:51:51.498Z,17.79
2022-09-17T03:53:26.284Z,17.81
2022-09-17T03:54:59.555Z,17.85
2022-09-17T03:56:32.653Z,17.87
2022-09-17T03:58:06.033Z,17.93
2022-09-17T03:59:39.143Z,17.97
2022-09-17T04:01:12.724Z,17.96
2022-09-17T04:02:46.046Z,17.98
2022-09-17T04:04:19.245Z,18.00
2022-09-17T04:05:52.616Z,18.02
2022-09-17T04:07:25.705Z,18.01
2022-09-17T04:09:00.954Z,18.04
2022-09-17T04:10:34.076Z,18.04
2022-09-17T04:12:07.594Z,18.05
2022-09-17T04:13:39.865Z,18.07
2022-09-17T04:15:13.039Z,18.07
2022-09-17T04:16:46.345Z,18.06
2022-09-17T04:18:19.471Z,18.06
2022-09-17T04:19:51.719Z,18.10
2022-09-17T04:21:24.831Z,18.11
2022-09-17T04:22:57.026Z,18.16
2022-09-17T04:24:31.663Z,18.21
2022-09-17T04:26:04.645Z,18.28
2022-09-17T04:27:37.800Z,18.29
2022-09-17T04:29:11.300Z,18.38
2022-09-17T04:30:43.486Z,18.40
2022-09-17T04:32:16.815Z,18.41
2022-09-17T04:33:50.076Z,18.42
2022-09-17T04:35:22.185Z,18.49
2022-09-17T04:36:55.377Z,18.53
2022-09-17T04:38:28.716Z,18.55
2022-09-17T04:40:07.031Z,18.65
2022-09-17T04:41:41.128Z,18.70
2022-09-17T04:43:14.642Z,18.76
2022-09-17T04:44:47.792Z,18.83
2022-09-17T04:46:21.178Z,18.92
2022-09-17T04:47:54.342Z,18.87
2022-09-17T04:49:29.999Z,18.83
2022-09-17T04:51:03.124Z,18.81
2022-09-17T04:52:35.263Z,18.80
2022-09-17T04:54:08.423Z,18.81
2022-09-17T04:55:44.158Z,18.91
2022-09-17T04:57:17.425Z,19.17
2022-09-17T04:58:50.683Z,19.44
2022-09-17T05:00:24.650Z,19.69
2022-09-17T05:01:57.962Z,19.87
2022-09-17T05:03:31.454Z,20.12
2022-09-17T05:05:04.894Z,20.38
2022-09-17T05:06:38.052Z,20.77
2022-09-17T05:08:11.958Z,21.11
2022-09-17T05:09:45.241Z,21.35
2022-09-17T05:11:19.837Z,21.44
2022-09-17T05:12:54.442Z,21.40
2022-09-17T05:14:27.640Z,21.14
2022-09-17T05:16:01.002Z,21.03
2022-09-17T05:17:33.380Z,20.97
2022-09-17T05:19:06.507Z,21.22
2022-09-17T05:20:39.944Z,21.52
2022-09-17T05:22:13.168Z,21.87
2022-09-17T05:23:46.416Z,22.25
2022-09-17T05:25:24.145Z,22.60
2022-09-17T05:26:58.834Z,23.08
2022-09-17T05:28:32.031Z,23.41
2022-09-17T05:30:05.966Z,23.66
2022-09-17T05:31:39.144Z,23.99
2022-09-17T05:33:12.472Z,24.09
2022-09-17T05:34:44.592Z,23.92
2022-09-17T05:36:18.137Z,23.67
2022-09-17T05:37:51.253Z,23.43
2022-09-17T05:39:25.541Z,23.26
2022-09-17T05:40:58.626Z,23.05
2022-09-17T05:42:33.111Z,22.77
2022-09-17T05:44:06.481Z,22.63
2022-09-17T05:45:40.468Z,22.50
2022-09-17T05:47:13.948Z,22.42
2022-09-17T05:48:47.065Z,22.41
2022-09-17T05:50:20.205Z,22.36
2022-09-17T05:51:53.333Z,22.36
2022-09-17T05:53:26.490Z,22.34
2022-09-17T05:54:59.609Z,22.32
2022-09-17T05:56:32.859Z,22.44
2022-09-17T05:58:15.245Z,22.55
2022-09-17T05:59:51.549Z,22.57
2022-09-17T06:01:24.909Z,22.69
2022-09-17T06:02:58.954Z,22.76
2022-09-17T06:04:34.946Z,22.93
2022-09-17T06:06:08.466Z,22.97
2022-09-17T06:07:41.577Z,23.05
2022-09-17T06:09:14.786Z,23.12
2022-09-17T06:10:47.909Z,22.97
2022-09-17T06:12:21.125Z,22.99
2022-09-17T06:13:56.346Z,23.05
2022-09-17T06:15:29.965Z,22.93
2022-09-17T06:17:03.206Z,22.87
2022-09-17T06:18:36.362Z,22.87
2022-09-17T06:20:10.254Z,23.03
2022-09-17T06:21:43.852Z,23.28
2022-09-17T06:23:17.086Z,23.50
2022-09-17T06:24:50.260Z,23.58
2022-09-17T06:26:23.379Z,23.23
2022-09-17T06:27:56.525Z,23.30
2022-09-17T06:29:31.039Z,23.41
2022-09-17T06:31:06.042Z,23.41
2022-09-17T06:32:39.206Z,23.36
2022-09-17T06:34:12.451Z,23.33
2022-09-17T06:35:45.645Z,23.32
2022-09-17T06:37:18.855Z,23.31
2022-09-17T06:38:52.264Z,23.19
2022-09-17T06:40:25.495Z,23.10
2022-09-17T06:41:58.682Z,22.97
2022-09-17T06:43:34.865Z,22.80
2022-09-17T06:45:15.851Z,22.66
2022-09-17T06:46:51.099Z,22.50
2022-09-17T06:48:24.897Z,22.35
2022-09-17T06:49:59.899Z,22.21
2022-09-17T06:51:32.982Z,22.09
2022-09-17T06:53:06.169Z,22.07
2022-09-17T06:54:39.419Z,22.04
2022-09-17T06:56:12.693Z,22.07
2022-09-17T06:57:46.096Z,22.10
2022-09-17T06:59:19.319Z,22.07
2022-09-17T07:00:54.187Z,22.02
2022-09-17T07:02:28.512Z,21.99
2022-09-17T07:04:01.836Z,21.94
2022-09-17T07:05:34.013Z,21.92
2022-09-17T07:07:07.105Z,21.96
2022-09-17T07:08:40.702Z,22.02
2022-09-17T07:10:13.843Z,22.06
2022-09-17T07:11:47.037Z,22.09
2022-09-17T07:13:19.118Z,22.16
2022-09-17T07:14:52.824Z,22.25
2022-09-17T07:16:28.245Z,22.36
2022-09-17T07:18:02.631Z,22.47
2022-09-17T07:19:35.943Z,22.57
2022-09-17T07:21:09.249Z,22.66
2022-09-17T07:22:42.561Z,22.74
2022-09-17T07:24:15.828Z,22.93
2022-09-17T07:25:53.161Z,23.09
2022-09-17T07:27:28.795Z,23.26
2022-09-17T07:29:01.953Z,23.36
2022-09-17T07:30:35.184Z,23.50
2022-09-17T07:32:09.918Z,23.67
2022-09-17T07:33:43.790Z,23.80
2022-09-17T07:35:17.673Z,23.88
2022-09-17T07:36:49.870Z,23.92
2022-09-17T07:38:23.885Z,23.96
2022-09-17T07:39:57.093Z,24.02
2022-09-17T07:41:30.268Z,24.04
2022-09-17T07:43:03.458Z,24.04
2022-09-17T07:44:36.625Z,23.99
2022-09-17T07:46:15.437Z,24.05
2022-09-17T07:47:50.106Z,24.13
2022-09-17T07:49:23.300Z,24.12
2022-09-17T07:50:56.514Z,24.26
2022-09-17T07:52:29.989Z,24.51
2022-09-17T07:54:03.425Z,24.78
2022-09-17T07:55:36.587Z,24.88
2022-09-17T07:57:09.722Z,25.05
2022-09-17T07:58:43.374Z,25.20
2022-09-17T08:00:17.054Z,25.49
2022-09-17T08:01:50.921Z,25.64
2022-09-17T08:03:25.504Z,25.77
2022-09-17T08:04:58.714Z,25.83
2022-09-17T08:06:32.166Z,25.71
2022-09-17T08:08:05.337Z,25.70
2022-09-17T08:09:38.611Z,25.65
2022-09-17T08:11:13.985Z,25.59
2022-09-17T08:12:47.166Z,25.53
2022-09-17T08:14:20.312Z,25.48
2022-09-17T08:15:53.722Z,25.41
2022-09-17T08:17:27.198Z,25.23
2022-09-17T08:19:02.136Z,25.24
2022-09-17T08:20:35.357Z,25.27
2022-09-17T08:22:08.472Z,25.36
2022-09-17T08:23:42.953Z,25.43
2022-09-17T08:25:16.273Z,25.58
2022-09-17T08:26:49.426Z,25.64
2022-09-17T08:28:22.168Z,25.65
2022-09-17T08:29:55.400Z,25.87
2022-09-17T08:31:30.631Z,26.22
2022-09-17T08:33:03.913Z,26.57
2022-09-17T08:34:38.448Z,26.98
2022-09-17T08:36:14.190Z,27.41
2022-09-17T08:37:47.533Z,27.79
2022-09-17T08:39:20.712Z,28.25
2022-09-17T08:41:06.210Z,28.08
2022-09-17T08:42:48.492Z,28.47
2022-09-17T08:44:27.881Z,28.93
2022-09-17T08:46:01.806Z,29.29
2022-09-17T08:47:37.885Z,29.49
2022-09-17T08:49:17.821Z,29.68
2022-09-17T08:50:55.382Z,29.65
2022-09-17T08:52:57.761Z,29.68
2022-09-17T08:54:39.164Z,29.72
2022-09-17T08:56:17.131Z,30.02
2022-09-17T08:58:02.221Z,30.42
2022-09-17T08:59:41.614Z,30.83
2022-09-17T09:01:29.229Z,30.69
2022-09-17T09:03:19.082Z,30.44
2022-09-17T09:05:03.575Z,30.37
2022-09-17T09:06:43.930Z,30.52
2022-09-17T09:08:27.270Z,30.81
2022-09-17T09:10:13.581Z,31.15
2022-09-17T09:11:49.101Z,31.50
2022-09-17T09:13:24.586Z,31.43
2022-09-17T09:15:03.188Z,31.40
2022-09-17T09:16:40.763Z,31.54
2022-09-17T09:18:19.668Z,31.68
2022-09-17T09:19:54.525Z,31.81
2022-09-17T09:21:29.505Z,31.62
2022-09-17T09:23:12.263Z,31.54
2022-09-17T09:24:53.510Z,31.60
2022-09-17T09:26:41.361Z,31.44
2022-09-17T09:28:25.153Z,31.37
2022-09-17T09:30:04.374Z,31.24
2022-09-17T09:31:58.240Z,31.27
2022-09-17T09:33:34.156Z,31.30
2022-09-17T09:35:18.409Z,31.37
2022-09-17T09:36:52.771Z,31.35
2022-09-17T09:38:34.056Z,31.35
2022-09-17T09:40:24.200Z,31.35
2022-09-17T09:42:02.713Z,31.37
2022-09-17T09:44:02.817Z,31.47
2022-09-17T09:45:46.702Z,31.56
2022-09-17T09:47:36.462Z,31.44
2022-09-17T09:49:19.671Z,31.49
2022-09-17T09:51:09.962Z,31.52
2022-09-17T09:52:54.548Z,31.53
2022-09-17T09:54:49.721Z,31.57
2022-09-17T09:56:35.159Z,31.63
2022-09-17T09:58:19.142Z,31.69
2022-09-17T09:59:52.587Z,31.68
2022-09-17T10:01:28.905Z,31.61
2022-09-17T10:03:11.020Z,31.57
2022-09-17T10:04:44.402Z,31.64
2022-09-17T10:06:19.785Z,31.60
2022-09-17T10:07:52.986Z,31.50
2022-09-17T10:09:27.816Z,31.46
2022-09-17T10:11:05.122Z,31.42
2022-09-17T10:12:38.626Z,31.06
2022-09-17T10:14:17.390Z,30.89
2022-09-17T10:15:50.795Z,30.83
2022-09-17T10:17:26.225Z,30.81
2022-09-17T10:19:15.634Z,30.79
2022-09-17T10:20:53.927Z,30.68
2022-09-17T10:22:32.228Z,30.63
2022-09-17T10:24:14.026Z,30.44
2022-09-17T10:25:47.293Z,30.31
2022-09-17T10:27:24.009Z,30.28
2022-09-17T10:28:59.876Z,30.24
2022-09-17T10:30:33.542Z,30.14
2022-09-17T10:32:08.667Z,30.04
2022-09-17T10:33:53.372Z,29.92
2022-09-17T10:35:28.691Z,29.81
2022-09-17T10:37:02.074Z,29.71
2022-09-17T10:38:37.900Z,29.61
2022-09-17T10:40:31.855Z,29.43
2022-09-17T10:42:06.811Z,29.26
2022-09-17T10:43:42.477Z,29.22
2022-09-17T10:45:25.989Z,29.12
2022-09-17T10:47:14.930Z,29.03
2022-09-17T10:48:58.086Z,28.95
2022-09-17T10:50:33.141Z,28.84
2022-09-17T10:52:09.746Z,28.74
2022-09-17T10:54:16.411Z,28.56
2022-09-17T10:55:54.990Z,28.49
2022-09-17T10:57:43.655Z,28.47
2022-09-17T10:59:36.590Z,28.36
2022-09-17T11:01:21.709Z,28.19
2022-09-17T11:03:32.255Z,27.94
2022-09-17T11:05:26.075Z,27.66
2022-09-17T11:07:33.476Z,27.23
2022-09-17T11:09:18.658Z,26.62
2022-09-17T11:11:02.746Z,26.45
2022-09-17T11:12:49.073Z,25.98
2022-09-17T11:14:41.456Z,25.56
2022-09-17T11:16:27.902Z,25.09
2022-09-17T11:18:33.139Z,24.54
2022-09-17T11:20:13.381Z,24.14
2022-09-17T11:21:53.086Z,23.85
2022-09-17T11:23:48.747Z,23.61
2022-09-17T11:25:32.423Z,23.48
2022-09-17T11:27:15.131Z,23.35
2022-09-17T11:29:02.634Z,23.31
2022-09-17T11:30:50.274Z,23.17
2022-09-17T11:32:42.264Z,22.97
2022-09-17T11:34:32.894Z,22.86
2022-09-17T11:36:14.543Z,22.77
2022-09-17T11:37:57.713Z,22.76
2022-09-17T11:39:38.480Z,22.70
2022-09-17T11:41:16.267Z,22.57
2022-09-17T11:42:54.642Z,22.30
2022-09-17T11:44:32.500Z,22.09
2022-09-17T11:46:12.313Z,21.73
2022-09-17T11:47:51.080Z,21.44
2022-09-17T11:49:32.168Z,21.16
2022-09-17T11:51:17.756Z,20.97
2022-09-17T11:53:02.647Z,20.75
2022-09-17T11:54:44.046Z,20.66
2022-09-17T11:56:24.439Z,20.63
2022-09-17T11:58:01.860Z,20.60
2022-09-17T11:59:41.048Z,20.61
2022-09-17T12:01:22.382Z,20.63
2022-09-17T12:03:00.724Z,20.64
2022-09-17T12:04:42.839Z,20.62
2022-09-17T12:06:22.010Z,20.59
2022-09-17T12:08:00.592Z,20.60
2022-09-17T12:09:38.055Z,20.62
2022-09-17T12:11:17.161Z,20.70
2022-09-17T12:12:56.759Z,20.76
2022-09-17T12:14:41.073Z,20.78
2022-09-17T12:16:21.357Z,20.84
2022-09-17T12:18:30.710Z,20.85
2022-09-17T12:20:02.677Z,20.86
2022-09-17T12:21:40.518Z,20.88
2022-09-17T12:23:17.220Z,20.91
2022-09-17T12:24:52.239Z,20.91
2022-09-17T12:26:46.532Z,20.89
2022-09-17T12:28:23.105Z,20.87
2022-09-17T12:30:16.475Z,20.82
2022-09-17T12:32:01.403Z,20.82
2022-09-17T12:33:38.913Z,20.84
2022-09-17T12:35:22.343Z,20.79
2022-09-17T12:37:05.611Z,20.86
2022-09-17T12:39:17.116Z,21.02
2022-09-17T12:40:56.058Z,21.16
2022-09-17T12:42:49.838Z,21.31
2022-09-17T12:44:38.733Z,21.47
2022-09-17T12:46:27.192Z,21.63
2022-09-17T12:48:20.076Z,21.84
2022-09-17T12:50:05.691Z,21.95
2022-09-17T12:51:56.735Z,22.03
2022-09-17T12:53:31.231Z,21.98
2022-09-17T12:55:27.165Z,21.96
2022-09-17T12:57:14.844Z,21.91
2022-09-17T12:59:06.983Z,21.78
2022-09-17T13:00:43.540Z,21.78
2022-09-17T13:02:22.207Z,21.74
2022-09-17T13:04:01.697Z,21.76
2022-09-17T13:05:56.098Z,21.80
2022-09-17T13:07:52.810Z,21.94
2022-09-17T13:09:48.201Z,22.00
2022-09-17T13:12:04.678Z,22.16
2022-09-17T13:13:48.006Z,22.28
2022-09-17T13:15:40.490Z,22.40
2022-09-17T13:17:20.658Z,22.58
2022-09-17T13:19:15.690Z,22.76
2022-09-17T13:21:04.382Z,22.89
2022-09-17T13:22:47.867Z,22.88
2022-09-17T13:24:25.131Z,22.87
2022-09-17T13:26:00.865Z,22.95
2022-09-17T13:27:35.552Z,22.97
2022-09-17T13:29:10.176Z,23.02
2022-09-17T13:31:01.372Z,23.00
2022-09-17T13:32:45.669Z,22.95
2022-09-17T13:34:32.463Z,22.96
2022-09-17T13:36:06.024Z,22.99
2022-09-17T13:37:42.845Z,23.00
2022-09-17T13:39:40.650Z,22.84
2022-09-17T13:41:24.251Z,22.87
2022-09-17T13:42:59.688Z,22.88
2022-09-17T13:44:36.309Z,22.89
2022-09-17T13:46:17.727Z,22.91
2022-09-17T13:47:54.122Z,22.99
2022-09-17T13:49:27.565Z,23.07
2022-09-17T13:51:42.523Z,23.14
2022-09-17T13:53:21.999Z,23.15
2022-09-17T13:54:55.249Z,23.15
2022-09-17T13:56:34.113Z,23.19
2022-09-17T13:58:10.409Z,23.12
2022-09-17T13:59:58.548Z,23.05
2022-09-17T14:02:02.929Z,22.99
2022-09-17T14:03:53.078Z,22.97
2022-09-17T14:05:38.599Z,23.03
2022-09-17T14:07:47.322Z,23.04
2022-09-17T14:09:52.610Z,23.14
2022-09-17T14:11:39.079Z,23.17
2022-09-17T14:13:44.410Z,23.17
2022-09-17T14:15:39.480Z,23.20
2022-09-17T14:17:13.229Z,23.26
2022-09-17T14:19:02.681Z,23.31
2022-09-17T14:20:36.058Z,23.33
2022-09-17T14:22:17.807Z,23.33
2022-09-17T14:23:56.593Z,23.31
2022-09-17T14:25:39.070Z,23.33
2022-09-17T14:27:15.846Z,23.29
2022-09-17T14:28:57.208Z,23.20
2022-09-17T14:30:32.314Z,23.21
2022-09-17T14:32:07.185Z,23.21
2022-09-17T14:33:41.395Z,23.15
2022-09-17T14:35:20.484Z,23.15
2022-09-17T14:36:55.248Z,23.11
2022-09-17T14:38:34.492Z,23.11
2022-09-17T14:40:15.267Z,23.07
2022-09-17T14:41:50.090Z,23.05
2022-09-17T14:43:33.199Z,23.08
2022-09-17T14:45:15.246Z,23.09
2022-09-17T14:46:55.118Z,23.08
2022-09-17T14:48:31.199Z,23.08
2022-09-17T14:50:22.794Z,23.11
2022-09-17T14:51:57.927Z,23.08
2022-09-17T14:53:30.204Z,23.03
2022-09-17T14:55:18.869Z,22.97
2022-09-17T14:56:58.575Z,22.94
2022-09-17T14:58:34.384Z,22.90
2022-09-17T15:00:17.242Z,22.88
2022-09-17T15:01:51.170Z,22.85
2022-09-17T15:03:25.609Z,22.89
2022-09-17T15:04:59.296Z,22.86
2022-09-17T15:06:32.655Z,22.79
2022-09-17T15:08:09.535Z,22.79
2022-09-17T15:09:41.801Z,22.79
2022-09-17T15:11:17.602Z,22.74
2022-09-17T15:12:52.598Z,22.77
2022-09-17T15:14:30.225Z,22.77
2022-09-17T15:16:07.678Z,22.74
2022-09-17T15:17:42.396Z,22.72
2022-09-17T15:19:23.462Z,22.70
2022-09-17T15:20:59.840Z,22.70
2022-09-17T15:22:38.958Z,22.72
2022-09-17T15:24:21.053Z,22.76
2022-09-17T15:25:58.623Z,22.77
2022-09-17T15:27:37.482Z,22.73
2022-09-17T15:29:13.449Z,22.65
2022-09-17T15:30:51.139Z,22.57
2022-09-17T15:32:24.572Z,22.51
2022-09-17T15:34:00.889Z,22.50
2022-09-17T15:35:35.141Z,22.57
2022-09-17T15:37:18.592Z,22.58
2022-09-17T15:38:52.665Z,22.54
2022-09-17T15:40:29.555Z,22.50
2022-09-17T15:42:02.817Z,22.49
2022-09-17T15:43:41.340Z,22.50
2022-09-17T15:45:20.187Z,22.50
2022-09-17T15:46:56.723Z,22.49
2022-09-17T15:48:38.679Z,22.53
2022-09-17T15:50:17.215Z,22.52
2022-09-17T15:51:52.419Z,22.52
2022-09-17T15:53:27.160Z,22.47
2022-09-17T15:54:59.939Z,22.47
2022-09-17T15:56:35.326Z,22.41
2022-09-17T15:58:23.959Z,22.35
2022-09-17T16:00:07.522Z,22.34
2022-09-17T16:01:56.669Z,22.32
2022-09-17T16:04:09.020Z,22.32
2022-09-17T16:05:47.543Z,22.30
2022-09-17T16:07:31.530Z,22.28
2022-09-17T16:09:03.965Z,22.26
2022-09-17T16:10:37.147Z,22.20
2022-09-17T16:12:14.372Z,22.14
2022-09-17T16:13:48.041Z,22.08
2022-09-17T16:15:22.659Z,22.01
2022-09-17T16:16:56.342Z,21.92
2022-09-17T16:18:29.540Z,21.88
2022-09-17T16:20:14.161Z,21.83
2022-09-17T16:21:47.320Z,21.71
2022-09-17T16:23:20.539Z,21.63
2022-09-17T16:24:52.861Z,21.53
2022-09-17T16:26:31.893Z,21.38
2022-09-17T16:28:07.775Z,21.29
2022-09-17T16:29:40.931Z,21.21
2022-09-17T16:31:15.800Z,21.20
2022-09-17T16:32:49.349Z,21.15
2022-09-17T16:34:22.556Z,21.09
2022-09-17T16:35:58.623Z,21.07
2022-09-17T16:37:31.261Z,21.06
2022-09-17T16:39:05.209Z,21.06
2022-09-17T16:40:42.397Z,21.05
2022-09-17T16:42:16.114Z,20.97
2022-09-17T16:43:49.616Z,20.99
2022-09-17T16:45:28.065Z,20.99
2022-09-17T16:47:03.836Z,20.98
2022-09-17T16:48:37.104Z,20.97
2022-09-17T16:50:12.486Z,20.94
2022-09-17T16:51:45.585Z,20.88
2022-09-17T16:53:18.717Z,20.81
2022-09-17T16:54:51.825Z,20.79
2022-09-17T16:56:25.084Z,20.73
2022-09-17T16:57:58.578Z,20.76
2022-09-17T16:59:31.796Z,20.79
2022-09-17T17:01:08.216Z,20.83
2022-09-17T17:02:43.713Z,20.82
2022-09-17T17:04:17.658Z,20.75
2022-09-17T17:05:50.800Z,20.79
2022-09-17T17:07:23.941Z,20.77
2022-09-17T17:09:00.846Z,20.78
2022-09-17T17:10:34.115Z,20.72
2022-09-17T17:12:07.684Z,20.67
2022-09-17T17:13:40.827Z,20.64
2022-09-17T17:15:14.593Z,20.59
2022-09-17T17:16:47.720Z,20.57
2022-09-17T17:18:23.268Z,20.55
2022-09-17T17:19:56.478Z,20.52
2022-09-17T17:21:29.785Z,20.48
2022-09-17T17:23:03.798Z,20.48
2022-09-17T17:24:36.959Z,20.43
2022-09-17T17:26:10.067Z,20.43
2022-09-17T17:27:44.686Z,20.43
2022-09-17T17:29:18.018Z,20.38
2022-09-17T17:30:51.218Z,20.36
2022-09-17T17:32:24.425Z,20.37
2022-09-17T17:33:59.352Z,20.39
2022-09-17T17:35:32.614Z,20.38
2022-09-17T17:37:05.869Z,20.33
2022-09-17T17:38:39.207Z,20.26
2022-09-17T17:40:13.064Z,20.19
2022-09-17T17:41:51.061Z,20.14
2022-09-17T17:43:25.015Z,20.12
2022-09-17T17:44:58.114Z,20.10
2022-09-17T17:46:31.485Z,20.08
2022-09-17T17:48:04.754Z,20.03
2022-09-17T17:49:39.279Z,20.02
2022-09-17T17:51:11.799Z,20.00
2022-09-17T17:52:48.211Z,19.98
2022-09-17T17:54:22.083Z,19.96
2022-09-17T17:56:00.027Z,19.95
2022-09-17T17:57:33.168Z,19.93
2022-09-17T17:59:06.419Z,19.89
2022-09-17T18:00:41.383Z,19.88
2022-09-17T18:02:14.700Z,19.88
2022-09-17T18:03:48.440Z,19.87
2022-09-17T18:05:23.603Z,19.88
2022-09-17T18:06:56.764Z,19.89
2022-09-17T18:08:29.926Z,19.91
2022-09-17T18:10:03.163Z,19.93
2022-09-17T18:11:36.822Z,19.92
2022-09-17T18:13:09.943Z,19.94
2022-09-17T18:14:43.113Z,19.87
2022-09-17T18:16:16.328Z,19.92
2022-09-17T18:17:51.176Z,19.92
2022-09-17T18:19:24.319Z,19.93
2022-09-17T18:21:01.915Z,19.92
2022-09-17T18:22:35.041Z,19.93
2022-09-17T18:24:08.778Z,19.91
2022-09-17T18:25:41.961Z,19.91
2022-09-17T18:27:15.344Z,19.93
2022-09-17T18:28:48.802Z,19.93
2022-09-17T18:30:22.196Z,19.92
2022-09-17T18:31:55.403Z,19.94
2022-09-17T18:33:28.775Z,19.96
2022-09-17T18:35:01.940Z,19.98
2022-09-17T18:36:39.655Z,20.00
2022-09-17T18:38:12.810Z,19.99
2022-09-17T18:40:01.350Z,19.99
2022-09-17T18:41:37.494Z,19.99
2022-09-17T18:43:11.409Z,19.98
2022-09-17T18:44:44.585Z,19.99
2022-09-17T18:46:17.835Z,19.97
2022-09-17T18:47:51.002Z,19.95
2022-09-17T18:49:24.533Z,19.95
2022-09-17T18:50:59.530Z,19.94
2022-09-17T18:52:34.236Z,19.93
2022-09-17T18:54:07.408Z,19.91
2022-09-17T18:55:40.625Z,19.94
2022-09-17T18:57:14.066Z,19.93
2022-09-17T18:58:48.811Z,19.93
2022-09-17T19:00:24.174Z,19.92
2022-09-17T19:01:57.573Z,19.87
2022-09-17T19:03:33.093Z,19.88
2022-09-17T19:05:05.944Z,19.92
2022-09-17T19:06:39.128Z,19.95
2022-09-17T19:08:14.676Z,19.96
2022-09-17T19:09:47.912Z,19.95
2022-09-17T19:11:21.025Z,19.93
2022-09-17T19:12:55.589Z,19.91
2022-09-17T19:14:28.797Z,19.87
2022-09-17T19:16:02.693Z,19.82
2022-09-17T19:17:36.458Z,19.83
2022-09-17T19:19:10.055Z,19.86
2022-09-17T19:20:42.610Z,19.85
2022-09-17T19:22:15.863Z,19.87
2022-09-17T19:23:54.000Z,19.87
2022-09-17T19:25:28.177Z,19.89
2022-09-17T19:27:01.686Z,19.88
2022-09-17T19:28:34.897Z,19.91
2022-09-17T19:30:09.457Z,19.92
2022-09-17T19:31:42.687Z,19.90
2022-09-17T19:33:15.059Z,19.96
2022-09-17T19:34:48.262Z,19.96
2022-09-17T19:36:22.069Z,19.98
2022-09-17T19:37:59.046Z,19.97
2022-09-17T19:39:34.180Z,19.97
2022-09-17T19:41:12.150Z,19.95
2022-09-17T19:42:45.343Z,19.92
2022-09-17T19:44:18.563Z,19.86
2022-09-17T19:45:51.859Z,19.84
2022-09-17T19:47:25.148Z,19.84
2022-09-17T19:48:59.041Z,19.83
2022-09-17T19:50:32.808Z,19.82
2022-09-17T19:52:06.205Z,19.82
2022-09-17T19:53:38.923Z,19.78
2022-09-17T19:55:13.657Z,19.77
2022-09-17T19:56:47.422Z,19.76
2022-09-17T19:58:21.614Z,19.75
2022-09-17T19:59:54.865Z,19.76
2022-09-17T20:01:28.077Z,19.69
2022-09-17T20:03:03.448Z,19.70
2022-09-17T20:04:36.806Z,19.70
2022-09-17T20:06:12.175Z,19.70
2022-09-17T20:07:48.075Z,19.69
2022-09-17T20:09:21.243Z,19.67
2022-09-17T20:10:55.927Z,19.65
2022-09-17T20:12:29.067Z,19.59
2022-09-17T20:14:06.730Z,19.58
2022-09-17T20:15:39.947Z,19.57
2022-09-17T20:17:13.953Z,19.54
2022-09-17T20:18:47.357Z,19.57
2022-09-17T20:20:20.580Z,19.55
2022-09-17T20:21:53.777Z,19.56
2022-09-17T20:23:31.810Z,19.59
2022-09-17T20:25:05.449Z,19.57
2022-09-17T20:26:40.726Z,19.58
2022-09-17T20:28:13.878Z,19.58
2022-09-17T20:29:47.291Z,19.57
2022-09-17T20:31:20.903Z,19.57
2022-09-17T20:32:56.504Z,19.55
2022-09-17T20:34:29.646Z,19.53
2022-09-17T20:36:04.545Z,19.52
2022-09-17T20:38:33.134Z,19.53
2022-09-17T20:39:31.920Z,19.52
2022-09-17T20:41:07.182Z,19.53
2022-09-17T20:42:41.666Z,19.56
2022-09-17T20:44:14.833Z,19.53
2022-09-17T20:45:53.287Z,19.50
2022-09-17T20:47:26.665Z,19.44
2022-09-17T20:48:58.967Z,19.40
2022-09-17T20:50:32.122Z,19.33
2022-09-17T20:52:05.654Z,19.34
2022-09-17T20:53:39.591Z,19.31
2022-09-17T20:55:12.748Z,19.25
2022-09-17T20:56:46.591Z,19.21
2022-09-17T20:58:21.334Z,19.17